sensor_id;sensor_type;location;lat;lon;timestamp;noise_LAeq;noise_LA_min;noise_LA_max;noise_LA01;noise_LA95
64077;Laerm;51039;49.696;10.808;2023-03-01T00:00:49;44.51;42.97;46.48;;
64077;Laerm;51039;49.696;10.808;2023-03-01T00:03:15;44.67;43.22;46.77;;
64077;Laerm;51039;49.696;10.808;2023-03-01T00:05:45;44.68;43.28;46.56;;
64077;Laerm;51039;49.696;10.808;2023-03-01T00:08:10;44.58;42.97;46.43;;
64077;Laerm;51039;49.696;10.808;2023-03-01T00:10:36;44.48;43.03;46.20;;
64077;Laerm;51039;49.696;10.808;2023-03-01T00:13:01;44.48;42.95;46.13;;
64077;Laerm;51039;49.696;10.808;2023-03-01T00:15:26;44.56;43.24;46.05;;
64077;Laerm;51039;49.696;10.808;2023-03-01T00:17:52;44.60;42.87;45.99;;
64077;Laerm;51039;49.696;10.808;2023-03-01T00:20:17;44.39;42.91;45.83;;
64077;Laerm;51039;49.696;10.808;2023-03-01T00:22:42;44.41;42.86;46.02;;
64077;Laerm;51039;49.696;10.808;2023-03-01T00:25:08;44.32;42.97;45.82;;
64077;Laerm;51039;49.696;10.808;2023-03-01T00:27:34;44.28;42.95;45.66;;
64077;Laerm;51039;49.696;10.808;2023-03-01T00:29:59;44.36;42.74;45.87;;
64077;Laerm;51039;49.696;10.808;2023-03-01T00:32:24;44.36;43.06;45.93;;
64077;Laerm;51039;49.696;10.808;2023-03-01T00:34:50;44.37;42.89;45.85;;
64077;Laerm;51039;49.696;10.808;2023-03-01T00:37:23;44.33;42.86;45.90;;
64077;Laerm;51039;49.696;10.808;2023-03-01T00:39:49;44.29;43.08;45.87;;
64077;Laerm;51039;49.696;10.808;2023-03-01T00:42:15;44.25;42.81;45.76;;
64077;Laerm;51039;49.696;10.808;2023-03-01T00:44:40;44.20;42.95;45.61;;
64077;Laerm;51039;49.696;10.808;2023-03-01T00:47:06;44.28;43.04;45.83;;
64077;Laerm;51039;49.696;10.808;2023-03-01T00:49:31;44.29;42.90;45.86;;
64077;Laerm;51039;49.696;10.808;2023-03-01T00:51:56;44.29;42.89;45.69;;
64077;Laerm;51039;49.696;10.808;2023-03-01T00:54:22;44.36;42.92;45.72;;
64077;Laerm;51039;49.696;10.808;2023-03-01T00:56:47;44.40;43.09;45.81;;
64077;Laerm;51039;49.696;10.808;2023-03-01T00:59:12;44.40;43.23;46.07;;
64077;Laerm;51039;49.696;10.808;2023-03-01T01:01:38;44.34;43.15;46.77;;
64077;Laerm;51039;49.696;10.808;2023-03-01T01:04:06;44.35;42.99;45.84;;
64077;Laerm;51039;49.696;10.808;2023-03-01T01:06:41;44.36;42.99;45.97;;
64077;Laerm;51039;49.696;10.808;2023-03-01T01:09:11;44.38;42.81;46.01;;
64077;Laerm;51039;49.696;10.808;2023-03-01T01:11:42;44.39;43.00;45.82;;
64077;Laerm;51039;49.696;10.808;2023-03-01T01:14:07;44.41;42.87;46.15;;
64077;Laerm;51039;49.696;10.808;2023-03-01T01:16:33;44.34;42.68;46.08;;
64077;Laerm;51039;49.696;10.808;2023-03-01T01:18:58;44.27;42.95;45.93;;
64077;Laerm;51039;49.696;10.808;2023-03-01T01:21:25;44.37;42.83;60.23;;
64077;Laerm;51039;49.696;10.808;2023-03-01T01:23:51;44.20;42.89;46.30;;
64077;Laerm;51039;49.696;10.808;2023-03-01T01:26:19;44.13;42.87;46.69;;
64077;Laerm;51039;49.696;10.808;2023-03-01T01:28:45;44.11;42.74;56.07;;
64077;Laerm;51039;49.696;10.808;2023-03-01T01:31:10;44.11;42.64;52.98;;
64077;Laerm;51039;49.696;10.808;2023-03-01T01:33:36;44.11;42.63;54.13;;
64077;Laerm;51039;49.696;10.808;2023-03-01T01:36:03;44.15;42.91;56.53;;
64077;Laerm;51039;49.696;10.808;2023-03-01T01:38:28;44.13;42.92;52.86;;
64077;Laerm;51039;49.696;10.808;2023-03-01T01:40:53;44.21;42.94;50.34;;
64077;Laerm;51039;49.696;10.808;2023-03-01T01:43:22;44.33;43.03;47.70;;
64077;Laerm;51039;49.696;10.808;2023-03-01T01:45:48;44.31;42.99;46.18;;
64077;Laerm;51039;49.696;10.808;2023-03-01T01:48:20;44.19;42.99;45.63;;
64077;Laerm;51039;49.696;10.808;2023-03-01T01:50:54;44.29;42.66;48.54;;
64077;Laerm;51039;49.696;10.808;2023-03-01T01:53:21;44.33;42.81;48.43;;
64077;Laerm;51039;49.696;10.808;2023-03-01T01:55:53;44.27;43.00;45.66;;
64077;Laerm;51039;49.696;10.808;2023-03-01T01:58:20;44.43;43.09;46.21;;
64077;Laerm;51039;49.696;10.808;2023-03-01T02:00:47;44.36;43.04;46.74;;
64077;Laerm;51039;49.696;10.808;2023-03-01T02:03:18;44.40;42.75;54.83;;
64077;Laerm;51039;49.696;10.808;2023-03-01T02:05:51;44.42;43.17;45.97;;
64077;Laerm;51039;49.696;10.808;2023-03-01T02:08:20;44.42;43.03;46.77;;
64077;Laerm;51039;49.696;10.808;2023-03-01T02:10:48;44.29;43.07;46.06;;
64077;Laerm;51039;49.696;10.808;2023-03-01T02:13:14;44.21;42.89;45.39;;
64077;Laerm;51039;49.696;10.808;2023-03-01T02:15:40;44.21;42.89;45.97;;
64077;Laerm;51039;49.696;10.808;2023-03-01T02:18:07;44.19;42.96;45.26;;
64077;Laerm;51039;49.696;10.808;2023-03-01T02:20:46;44.18;43.04;45.41;;
64077;Laerm;51039;49.696;10.808;2023-03-01T02:23:17;44.15;42.98;46.20;;
64077;Laerm;51039;49.696;10.808;2023-03-01T02:26:02;44.14;42.76;45.30;;
64077;Laerm;51039;49.696;10.808;2023-03-01T02:28:36;44.12;42.87;45.55;;
64077;Laerm;51039;49.696;10.808;2023-03-01T02:31:07;44.09;42.81;45.30;;
64077;Laerm;51039;49.696;10.808;2023-03-01T02:33:52;44.01;42.71;45.19;;
64077;Laerm;51039;49.696;10.808;2023-03-01T02:36:25;43.97;42.72;45.16;;
64077;Laerm;51039;49.696;10.808;2023-03-01T02:38:54;43.90;42.63;45.00;;
64077;Laerm;51039;49.696;10.808;2023-03-01T02:41:21;43.84;42.74;45.01;;
64077;Laerm;51039;49.696;10.808;2023-03-01T02:43:48;43.81;42.42;45.08;;
64077;Laerm;51039;49.696;10.808;2023-03-01T02:46:19;43.80;42.45;44.98;;
64077;Laerm;51039;49.696;10.808;2023-03-01T02:48:51;43.81;42.43;44.92;;
64077;Laerm;51039;49.696;10.808;2023-03-01T02:54:19;43.92;42.27;45.08;;
64077;Laerm;51039;49.696;10.808;2023-03-01T02:56:46;44.02;42.69;45.30;;
64077;Laerm;51039;49.696;10.808;2023-03-01T02:59:18;44.07;42.45;45.33;;
64077;Laerm;51039;49.696;10.808;2023-03-01T03:01:44;44.12;42.90;45.59;;
64077;Laerm;51039;49.696;10.808;2023-03-01T03:04:13;44.12;42.82;45.36;;
64077;Laerm;51039;49.696;10.808;2023-03-01T03:06:47;44.10;42.83;45.57;;
64077;Laerm;51039;49.696;10.808;2023-03-01T03:09:14;44.14;42.82;45.68;;
64077;Laerm;51039;49.696;10.808;2023-03-01T03:11:39;44.14;42.70;45.38;;
64077;Laerm;51039;49.696;10.808;2023-03-01T03:14:06;44.14;42.53;45.45;;
64077;Laerm;51039;49.696;10.808;2023-03-01T03:16:50;44.14;42.73;45.57;;
64077;Laerm;51039;49.696;10.808;2023-03-01T03:19:17;44.13;42.85;45.47;;
64077;Laerm;51039;49.696;10.808;2023-03-01T03:21:43;44.30;42.71;45.70;;
64077;Laerm;51039;49.696;10.808;2023-03-01T03:24:08;44.09;42.62;45.74;;
64077;Laerm;51039;49.696;10.808;2023-03-01T03:26:34;44.05;42.71;45.17;;
64077;Laerm;51039;49.696;10.808;2023-03-01T03:28:59;44.04;42.57;45.51;;
64077;Laerm;51039;49.696;10.808;2023-03-01T03:31:25;44.05;42.73;45.39;;
64077;Laerm;51039;49.696;10.808;2023-03-01T03:33:50;44.11;42.71;46.23;;
64077;Laerm;51039;49.696;10.808;2023-03-01T03:36:17;44.00;42.67;45.37;;
64077;Laerm;51039;49.696;10.808;2023-03-01T03:38:44;44.07;42.72;47.01;;
64077;Laerm;51039;49.696;10.808;2023-03-01T03:41:11;44.06;42.67;46.85;;
64077;Laerm;51039;49.696;10.808;2023-03-01T03:43:39;44.02;42.57;45.50;;
64077;Laerm;51039;49.696;10.808;2023-03-01T03:46:05;43.94;42.76;45.22;;
64077;Laerm;51039;49.696;10.808;2023-03-01T03:48:33;43.96;42.69;49.60;;
64077;Laerm;51039;49.696;10.808;2023-03-01T03:50:59;43.90;42.63;45.07;;
64077;Laerm;51039;49.696;10.808;2023-03-01T03:53:26;43.88;42.48;45.04;;
64077;Laerm;51039;49.696;10.808;2023-03-01T03:55:52;43.88;42.48;45.30;;
64077;Laerm;51039;49.696;10.808;2023-03-01T03:58:20;43.81;42.42;45.59;;
64077;Laerm;51039;49.696;10.808;2023-03-01T04:00:48;43.77;42.16;45.24;;
64077;Laerm;51039;49.696;10.808;2023-03-01T04:03:15;43.73;42.49;45.02;;
64077;Laerm;51039;49.696;10.808;2023-03-01T04:05:41;43.71;42.49;44.92;;
64077;Laerm;51039;49.696;10.808;2023-03-01T04:08:07;43.68;42.47;45.50;;
64077;Laerm;51039;49.696;10.808;2023-03-01T04:10:35;43.64;42.31;44.83;;
64077;Laerm;51039;49.696;10.808;2023-03-01T04:13:01;43.70;42.30;49.19;;
64077;Laerm;51039;49.696;10.808;2023-03-01T04:15:27;43.62;42.37;45.36;;
64077;Laerm;51039;49.696;10.808;2023-03-01T04:17:53;43.68;42.44;45.91;;
64077;Laerm;51039;49.696;10.808;2023-03-01T04:20:23;43.69;42.41;44.98;;
64077;Laerm;51039;49.696;10.808;2023-03-01T04:25:56;43.75;42.43;45.53;;
64077;Laerm;51039;49.696;10.808;2023-03-01T04:28:35;43.80;42.42;45.02;;
64077;Laerm;51039;49.696;10.808;2023-03-01T04:31:20;43.81;42.37;44.96;;
64077;Laerm;51039;49.696;10.808;2023-03-01T04:33:49;43.81;42.67;45.02;;
64077;Laerm;51039;49.696;10.808;2023-03-01T04:36:17;43.89;42.53;45.30;;
64077;Laerm;51039;49.696;10.808;2023-03-01T04:38:43;43.90;42.54;45.48;;
64077;Laerm;51039;49.696;10.808;2023-03-01T04:41:13;43.90;42.67;45.29;;
64077;Laerm;51039;49.696;10.808;2023-03-01T04:43:39;43.92;42.65;47.40;;
64077;Laerm;51039;49.696;10.808;2023-03-01T04:46:07;43.95;42.40;47.43;;
64077;Laerm;51039;49.696;10.808;2023-03-01T04:48:37;43.89;42.49;46.54;;
64077;Laerm;51039;49.696;10.808;2023-03-01T04:51:04;43.91;42.45;45.21;;
64077;Laerm;51039;49.696;10.808;2023-03-01T04:53:30;43.98;42.61;46.36;;
64077;Laerm;51039;49.696;10.808;2023-03-01T04:55:57;43.95;42.23;45.22;;
64077;Laerm;51039;49.696;10.808;2023-03-01T04:58:24;43.95;42.70;45.23;;
64077;Laerm;51039;49.696;10.808;2023-03-01T05:00:50;43.92;42.66;45.12;;
64077;Laerm;51039;49.696;10.808;2023-03-01T05:03:16;43.90;42.65;45.32;;
64077;Laerm;51039;49.696;10.808;2023-03-01T05:05:46;43.86;42.61;45.09;;
64077;Laerm;51039;49.696;10.808;2023-03-01T05:08:13;43.83;42.45;44.99;;
64077;Laerm;51039;49.696;10.808;2023-03-01T05:10:44;43.80;42.38;44.96;;
64077;Laerm;51039;49.696;10.808;2023-03-01T05:13:11;43.80;42.56;48.57;;
64077;Laerm;51039;49.696;10.808;2023-03-01T05:15:38;43.80;42.54;45.05;;
64077;Laerm;51039;49.696;10.808;2023-03-01T05:18:04;43.85;42.43;45.50;;
64077;Laerm;51039;49.696;10.808;2023-03-01T05:20:36;43.87;42.68;44.91;;
64077;Laerm;51039;49.696;10.808;2023-03-01T05:23:02;43.88;42.45;45.04;;
64077;Laerm;51039;49.696;10.808;2023-03-01T05:25:33;43.91;42.81;45.11;;
64077;Laerm;51039;49.696;10.808;2023-03-01T05:28:00;43.94;42.57;45.00;;
64077;Laerm;51039;49.696;10.808;2023-03-01T05:30:30;43.94;42.82;45.32;;
64077;Laerm;51039;49.696;10.808;2023-03-01T05:32:55;43.94;42.59;45.05;;
64077;Laerm;51039;49.696;10.808;2023-03-01T05:35:21;43.92;42.45;45.18;;
64077;Laerm;51039;49.696;10.808;2023-03-01T05:37:48;43.91;42.50;45.03;;
64077;Laerm;51039;49.696;10.808;2023-03-01T05:40:23;43.86;42.60;45.00;;
64077;Laerm;51039;49.696;10.808;2023-03-01T05:42:52;43.80;42.64;45.18;;
64077;Laerm;51039;49.696;10.808;2023-03-01T05:45:19;43.75;42.43;44.88;;
64077;Laerm;51039;49.696;10.808;2023-03-01T05:47:46;43.71;42.26;45.02;;
64077;Laerm;51039;49.696;10.808;2023-03-01T05:50:15;43.70;42.56;45.55;;
64077;Laerm;51039;49.696;10.808;2023-03-01T05:52:47;43.73;42.48;44.82;;
64077;Laerm;51039;49.696;10.808;2023-03-01T05:55:17;43.75;42.10;44.99;;
64077;Laerm;51039;49.696;10.808;2023-03-01T05:57:43;43.74;42.61;45.00;;
64077;Laerm;51039;49.696;10.808;2023-03-01T06:00:10;43.76;42.70;45.98;;
64077;Laerm;51039;49.696;10.808;2023-03-01T06:02:35;43.73;42.28;45.35;;
64077;Laerm;51039;49.696;10.808;2023-03-01T06:05:01;43.69;42.18;45.66;;
64077;Laerm;51039;49.696;10.808;2023-03-01T06:07:26;43.61;42.01;45.10;;
64077;Laerm;51039;49.696;10.808;2023-03-01T06:09:51;43.64;42.41;44.99;;
64077;Laerm;51039;49.696;10.808;2023-03-01T06:12:16;43.70;42.38;45.69;;
64077;Laerm;51039;49.696;10.808;2023-03-01T06:14:42;43.62;42.31;45.27;;
64077;Laerm;51039;49.696;10.808;2023-03-01T06:17:07;43.57;42.21;45.70;;
64077;Laerm;51039;49.696;10.808;2023-03-01T06:19:33;43.60;42.46;44.78;;
64077;Laerm;51039;49.696;10.808;2023-03-01T06:21:58;43.66;42.50;44.82;;
64077;Laerm;51039;49.696;10.808;2023-03-01T06:24:23;43.72;42.60;44.96;;
64077;Laerm;51039;49.696;10.808;2023-03-01T06:26:49;43.76;42.56;44.96;;
64077;Laerm;51039;49.696;10.808;2023-03-01T06:29:14;43.83;42.60;45.20;;
64077;Laerm;51039;49.696;10.808;2023-03-01T06:31:39;43.88;42.58;45.14;;
64077;Laerm;51039;49.696;10.808;2023-03-01T06:34:05;43.89;42.70;45.43;;
64077;Laerm;51039;49.696;10.808;2023-03-01T06:36:30;43.93;42.63;46.27;;
64077;Laerm;51039;49.696;10.808;2023-03-01T06:38:55;43.96;42.40;45.07;;
64077;Laerm;51039;49.696;10.808;2023-03-01T06:41:20;43.98;42.59;45.17;;
64077;Laerm;51039;49.696;10.808;2023-03-01T06:43:46;44.06;42.75;47.38;;
64077;Laerm;51039;49.696;10.808;2023-03-01T06:46:11;44.08;42.47;48.42;;
64077;Laerm;51039;49.696;10.808;2023-03-01T06:48:37;44.10;42.83;45.64;;
64077;Laerm;51039;49.696;10.808;2023-03-01T06:51:03;44.17;42.98;48.01;;
64077;Laerm;51039;49.696;10.808;2023-03-01T06:53:29;44.16;42.95;45.61;;
64077;Laerm;51039;49.696;10.808;2023-03-01T06:55:58;44.17;42.89;46.05;;
64077;Laerm;51039;49.696;10.808;2023-03-01T06:58:25;44.23;42.80;48.11;;
64077;Laerm;51039;49.696;10.808;2023-03-01T07:00:50;44.37;42.82;46.62;;
64077;Laerm;51039;49.696;10.808;2023-03-01T07:03:15;44.43;43.13;46.74;;
64077;Laerm;51039;49.696;10.808;2023-03-01T07:05:41;44.45;42.99;48.26;;
64077;Laerm;51039;49.696;10.808;2023-03-01T07:08:06;44.45;43.03;47.18;;
64077;Laerm;51039;49.696;10.808;2023-03-01T07:10:31;44.41;43.09;50.32;;
64077;Laerm;51039;49.696;10.808;2023-03-01T07:12:58;44.50;42.92;47.25;;
64077;Laerm;51039;49.696;10.808;2023-03-01T07:15:24;44.65;43.09;47.46;;
64077;Laerm;51039;49.696;10.808;2023-03-01T07:17:50;44.94;43.11;48.02;;
64077;Laerm;51039;49.696;10.808;2023-03-01T07:20:16;44.35;43.06;46.78;;
64077;Laerm;51039;49.696;10.808;2023-03-01T07:22:42;44.77;43.11;47.53;;
64077;Laerm;51039;49.696;10.808;2023-03-01T07:25:08;44.95;43.10;46.99;;
64077;Laerm;51039;49.696;10.808;2023-03-01T07:27:34;44.96;43.16;48.04;;
64077;Laerm;51039;49.696;10.808;2023-03-01T07:29:59;44.45;43.09;46.45;;
64077;Laerm;51039;49.696;10.808;2023-03-01T07:32:24;44.45;43.20;47.78;;
64077;Laerm;51039;49.696;10.808;2023-03-01T07:34:51;44.66;43.28;47.54;;
64077;Laerm;51039;49.696;10.808;2023-03-01T07:37:16;44.49;42.98;53.32;;
64077;Laerm;51039;49.696;10.808;2023-03-01T07:39:41;44.36;42.93;45.71;;
64077;Laerm;51039;49.696;10.808;2023-03-01T07:42:07;44.36;42.91;45.76;;
64077;Laerm;51039;49.696;10.808;2023-03-01T07:44:33;44.31;42.81;45.47;;
64077;Laerm;51039;49.696;10.808;2023-03-01T07:46:59;44.28;42.76;49.50;;
64077;Laerm;51039;49.696;10.808;2023-03-01T07:49:25;44.11;42.70;46.36;;
64077;Laerm;51039;49.696;10.808;2023-03-01T07:51:51;43.93;42.31;46.88;;
64077;Laerm;51039;49.696;10.808;2023-03-01T07:54:17;43.72;42.23;48.53;;
64077;Laerm;51039;49.696;10.808;2023-03-01T07:56:43;43.58;42.12;44.86;;
64077;Laerm;51039;49.696;10.808;2023-03-01T07:59:08;43.45;41.76;44.79;;
64077;Laerm;51039;49.696;10.808;2023-03-01T08:01:34;43.41;41.68;47.07;;
64077;Laerm;51039;49.696;10.808;2023-03-01T08:03:59;43.40;42.03;44.73;;
64077;Laerm;51039;49.696;10.808;2023-03-01T08:06:25;43.38;41.65;44.67;;
64077;Laerm;51039;49.696;10.808;2023-03-01T08:08:50;43.32;41.90;44.77;;
64077;Laerm;51039;49.696;10.808;2023-03-01T08:11:16;43.29;41.84;44.56;;
64077;Laerm;51039;49.696;10.808;2023-03-01T08:13:42;43.31;41.94;44.72;;
64077;Laerm;51039;49.696;10.808;2023-03-01T08:16:10;43.31;41.97;44.66;;
64077;Laerm;51039;49.696;10.808;2023-03-01T08:18:36;43.30;41.86;44.77;;
64077;Laerm;51039;49.696;10.808;2023-03-01T08:21:06;43.26;41.79;44.55;;
64077;Laerm;51039;49.696;10.808;2023-03-01T08:23:33;43.25;41.86;44.92;;
64077;Laerm;51039;49.696;10.808;2023-03-01T08:26:15;43.17;41.66;45.46;;
64077;Laerm;51039;49.696;10.808;2023-03-01T08:28:42;43.30;41.96;46.82;;
64077;Laerm;51039;49.696;10.808;2023-03-01T08:31:24;43.27;41.50;44.86;;
64077;Laerm;51039;49.696;10.808;2023-03-01T08:33:51;43.29;41.88;49.42;;
64077;Laerm;51039;49.696;10.808;2023-03-01T08:36:20;43.28;41.76;44.63;;
64077;Laerm;51039;49.696;10.808;2023-03-01T08:38:46;43.28;41.70;45.37;;
64077;Laerm;51039;49.696;10.808;2023-03-01T08:41:11;43.24;41.82;44.44;;
64077;Laerm;51039;49.696;10.808;2023-03-01T08:43:37;43.25;41.85;47.24;;
64077;Laerm;51039;49.696;10.808;2023-03-01T08:46:02;43.27;41.82;45.51;;
64077;Laerm;51039;49.696;10.808;2023-03-01T08:48:28;43.27;41.86;44.54;;
64077;Laerm;51039;49.696;10.808;2023-03-01T08:50:53;43.29;41.80;44.71;;
64077;Laerm;51039;49.696;10.808;2023-03-01T08:53:19;43.26;41.77;44.57;;
64077;Laerm;51039;49.696;10.808;2023-03-01T08:55:44;43.24;41.95;44.84;;
64077;Laerm;51039;49.696;10.808;2023-03-01T08:58:09;43.22;41.65;44.62;;
64077;Laerm;51039;49.696;10.808;2023-03-01T09:00:35;43.25;41.75;48.66;;
64077;Laerm;51039;49.696;10.808;2023-03-01T09:03:01;43.18;41.94;44.98;;
64077;Laerm;51039;49.696;10.808;2023-03-01T09:05:26;43.21;41.76;47.12;;
64077;Laerm;51039;49.696;10.808;2023-03-01T09:07:53;43.20;41.81;44.53;;
64077;Laerm;51039;49.696;10.808;2023-03-01T09:10:18;43.21;41.77;45.42;;
64077;Laerm;51039;49.696;10.808;2023-03-01T09:12:43;43.19;41.60;44.72;;
64077;Laerm;51039;49.696;10.808;2023-03-01T09:15:09;43.16;41.55;44.93;;
64077;Laerm;51039;49.696;10.808;2023-03-01T09:17:35;43.18;41.89;46.16;;
64077;Laerm;51039;49.696;10.808;2023-03-01T09:20:00;43.17;41.69;45.61;;
64077;Laerm;51039;49.696;10.808;2023-03-01T09:22:25;43.14;41.89;48.09;;
64077;Laerm;51039;49.696;10.808;2023-03-01T09:24:51;43.13;41.67;46.82;;
64077;Laerm;51039;49.696;10.808;2023-03-01T09:27:16;43.15;41.64;45.73;;
64077;Laerm;51039;49.696;10.808;2023-03-01T09:29:44;43.12;41.80;46.04;;
64077;Laerm;51039;49.696;10.808;2023-03-01T09:32:09;43.12;41.85;46.86;;
64077;Laerm;51039;49.696;10.808;2023-03-01T09:34:35;43.09;41.46;44.46;;
64077;Laerm;51039;49.696;10.808;2023-03-01T09:37:20;43.10;41.44;45.01;;
64077;Laerm;51039;49.696;10.808;2023-03-01T09:39:45;43.10;41.77;44.76;;
64077;Laerm;51039;49.696;10.808;2023-03-01T09:42:11;43.11;41.88;45.22;;
64077;Laerm;51039;49.696;10.808;2023-03-01T09:44:51;43.09;41.55;47.19;;
64077;Laerm;51039;49.696;10.808;2023-03-01T09:47:23;43.03;41.28;44.49;;
64077;Laerm;51039;49.696;10.808;2023-03-01T09:52:34;43.07;41.59;47.91;;
64077;Laerm;51039;49.696;10.808;2023-03-01T09:55:12;43.06;41.43;44.54;;
64077;Laerm;51039;49.696;10.808;2023-03-01T09:57:47;43.10;41.39;48.43;;
64077;Laerm;51039;49.696;10.808;2023-03-01T10:00:20;43.02;41.65;44.19;;
64077;Laerm;51039;49.696;10.808;2023-03-01T10:10:44;43.01;41.60;44.88;;
64077;Laerm;51039;49.696;10.808;2023-03-01T10:13:23;43.04;41.55;47.04;;
64077;Laerm;51039;49.696;10.808;2023-03-01T10:16:09;43.02;41.58;44.39;;
64077;Laerm;51039;49.696;10.808;2023-03-01T10:18:37;43.06;41.51;47.18;;
64077;Laerm;51039;49.696;10.808;2023-03-01T10:21:18;42.98;41.63;44.36;;
64077;Laerm;51039;49.696;10.808;2023-03-01T10:23:45;43.01;41.62;47.93;;
64077;Laerm;51039;49.696;10.808;2023-03-01T10:29:04;42.94;41.53;48.19;;
64077;Laerm;51039;49.696;10.808;2023-03-01T10:31:37;42.96;41.27;47.52;;
64077;Laerm;51039;49.696;10.808;2023-03-01T10:34:13;42.87;41.46;44.13;;
64077;Laerm;51039;49.696;10.808;2023-03-01T10:36:41;42.84;41.15;45.47;;
64077;Laerm;51039;49.696;10.808;2023-03-01T10:39:16;42.79;41.22;46.48;;
64077;Laerm;51039;49.696;10.808;2023-03-01T10:41:55;42.83;41.11;46.20;;
64077;Laerm;51039;49.696;10.808;2023-03-01T10:47:04;42.80;41.32;45.12;;
64077;Laerm;51039;49.696;10.808;2023-03-01T10:49:29;42.75;41.31;44.05;;
64077;Laerm;51039;49.696;10.808;2023-03-01T10:51:55;42.78;41.42;44.23;;
64077;Laerm;51039;49.696;10.808;2023-03-01T10:54:27;42.89;41.53;51.59;;
64077;Laerm;51039;49.696;10.808;2023-03-01T10:56:56;42.80;41.32;47.88;;
64077;Laerm;51039;49.696;10.808;2023-03-01T10:59:29;42.79;41.48;45.51;;
64077;Laerm;51039;49.696;10.808;2023-03-01T11:04:28;42.71;41.33;44.41;;
64077;Laerm;51039;49.696;10.808;2023-03-01T11:07:01;42.73;41.06;46.08;;
64077;Laerm;51039;49.696;10.808;2023-03-01T11:09:31;42.70;41.21;45.71;;
64077;Laerm;51039;49.696;10.808;2023-03-01T11:12:03;42.71;41.34;44.03;;
64077;Laerm;51039;49.696;10.808;2023-03-01T11:14:38;42.70;41.16;47.28;;
64077;Laerm;51039;49.696;10.808;2023-03-01T11:17:27;42.70;41.22;46.03;;
64077;Laerm;51039;49.696;10.808;2023-03-01T11:23:14;42.76;41.29;46.86;;
64077;Laerm;51039;49.696;10.808;2023-03-01T11:25:43;42.77;41.26;44.89;;
64077;Laerm;51039;49.696;10.808;2023-03-01T11:28:14;42.79;41.43;46.34;;
64077;Laerm;51039;49.696;10.808;2023-03-01T11:31:02;42.79;41.09;45.18;;
64077;Laerm;51039;49.696;10.808;2023-03-01T11:33:37;42.78;41.42;47.28;;
64077;Laerm;51039;49.696;10.808;2023-03-01T11:36:31;42.79;41.26;44.06;;
64077;Laerm;51039;49.696;10.808;2023-03-01T11:39:08;42.83;41.50;45.43;;
64077;Laerm;51039;49.696;10.808;2023-03-01T11:41:39;43.15;41.40;55.97;;
64077;Laerm;51039;49.696;10.808;2023-03-01T11:44:11;42.95;41.57;52.32;;
64077;Laerm;51039;49.696;10.808;2023-03-01T11:47:08;42.82;41.15;45.72;;
64077;Laerm;51039;49.696;10.808;2023-03-01T11:49:52;42.87;41.32;48.21;;
64077;Laerm;51039;49.696;10.808;2023-03-01T11:58:25;43.00;41.47;49.76;;
64077;Laerm;51039;49.696;10.808;2023-03-01T12:01:08;42.99;41.30;52.66;;
64077;Laerm;51039;49.696;10.808;2023-03-01T12:06:57;43.10;41.42;53.53;;
64077;Laerm;51039;49.696;10.808;2023-03-01T12:10:34;42.90;41.50;49.02;;
64077;Laerm;51039;49.696;10.808;2023-03-01T12:12:48;42.87;41.46;45.96;;
64077;Laerm;51039;49.696;10.808;2023-03-01T12:18:08;42.87;41.37;48.74;;
64077;Laerm;51039;49.696;10.808;2023-03-01T12:23:41;43.01;41.40;51.86;;
64077;Laerm;51039;49.696;10.808;2023-03-01T12:26:10;42.89;41.05;50.89;;
64077;Laerm;51039;49.696;10.808;2023-03-01T12:28:48;43.22;41.32;55.96;;
64077;Laerm;51039;49.696;10.808;2023-03-01T12:31:35;42.97;41.57;51.58;;
64077;Laerm;51039;49.696;10.808;2023-03-01T12:40:03;43.05;41.55;49.48;;
64077;Laerm;51039;49.696;10.808;2023-03-01T12:42:41;43.01;41.69;47.88;;
64077;Laerm;51039;49.696;10.808;2023-03-01T12:48:12;43.28;41.54;54.54;;
64077;Laerm;51039;49.696;10.808;2023-03-01T12:50:44;43.04;41.46;50.63;;
64077;Laerm;51039;49.696;10.808;2023-03-01T12:55:47;43.22;41.51;53.21;;
64077;Laerm;51039;49.696;10.808;2023-03-01T12:58:44;43.08;41.46;53.60;;
64077;Laerm;51039;49.696;10.808;2023-03-01T13:01:22;43.01;41.57;50.43;;
64077;Laerm;51039;49.696;10.808;2023-03-01T13:04:06;43.44;41.59;55.80;;
64077;Laerm;51039;49.696;10.808;2023-03-01T13:06:48;43.06;41.30;50.67;;
64077;Laerm;51039;49.696;10.808;2023-03-01T13:09:55;43.02;41.46;53.07;;
64077;Laerm;51039;49.696;10.808;2023-03-01T13:17:52;43.22;41.39;54.44;;
64077;Laerm;51039;49.696;10.808;2023-03-01T13:23:07;43.09;41.38;52.52;;
64077;Laerm;51039;49.696;10.808;2023-03-01T13:25:34;43.37;41.54;58.08;;
64077;Laerm;51039;49.696;10.808;2023-03-01T13:30:59;43.14;41.50;50.26;;
64077;Laerm;51039;49.696;10.808;2023-03-01T13:35:54;43.02;41.56;48.70;;
64077;Laerm;51039;49.696;10.808;2023-03-01T13:38:47;43.14;41.43;52.81;;
64077;Laerm;51039;49.696;10.808;2023-03-01T13:41:27;43.05;41.47;51.36;;
64077;Laerm;51039;49.696;10.808;2023-03-01T13:44:12;43.10;41.56;50.12;;
64077;Laerm;51039;49.696;10.808;2023-03-01T13:46:38;43.01;41.40;46.26;;
64077;Laerm;51039;49.696;10.808;2023-03-01T13:49:03;43.22;41.57;53.98;;
64077;Laerm;51039;49.696;10.808;2023-03-01T13:51:29;43.30;41.52;54.69;;
64077;Laerm;51039;49.696;10.808;2023-03-01T13:53:57;43.29;41.70;52.65;;
64077;Laerm;51039;49.696;10.808;2023-03-01T13:56:28;43.08;41.40;51.20;;
64077;Laerm;51039;49.696;10.808;2023-03-01T13:59:01;43.29;41.71;52.99;;
64077;Laerm;51039;49.696;10.808;2023-03-01T14:01:30;43.41;41.61;53.99;;
64077;Laerm;51039;49.696;10.808;2023-03-01T14:03:55;43.68;41.43;53.01;;
64077;Laerm;51039;49.696;10.808;2023-03-01T14:06:24;43.28;41.65;52.82;;
64077;Laerm;51039;49.696;10.808;2023-03-01T14:09:00;43.28;41.63;55.10;;
64077;Laerm;51039;49.696;10.808;2023-03-01T14:14:34;43.42;41.65;54.00;;
64077;Laerm;51039;49.696;10.808;2023-03-01T14:17:34;43.57;41.56;55.24;;
64077;Laerm;51039;49.696;10.808;2023-03-01T14:20:30;43.66;41.63;55.14;;
64077;Laerm;51039;49.696;10.808;2023-03-01T14:22:59;43.30;41.78;53.85;;
64077;Laerm;51039;49.696;10.808;2023-03-01T14:25:31;43.29;41.75;54.27;;
64077;Laerm;51039;49.696;10.808;2023-03-01T14:30:50;43.42;41.57;54.30;;
64077;Laerm;51039;49.696;10.808;2023-03-01T14:38:31;43.22;41.70;48.23;;
64077;Laerm;51039;49.696;10.808;2023-03-01T14:41:02;43.29;41.63;50.93;;
64077;Laerm;51039;49.696;10.808;2023-03-01T14:43:29;43.21;41.73;49.49;;
64077;Laerm;51039;49.696;10.808;2023-03-01T14:45:55;43.28;41.87;51.17;;
64077;Laerm;51039;49.696;10.808;2023-03-01T14:48:21;43.22;41.54;52.01;;
64077;Laerm;51039;49.696;10.808;2023-03-01T14:50:47;43.95;41.84;63.79;;
64077;Laerm;51039;49.696;10.808;2023-03-01T14:53:19;43.29;41.56;50.07;;
64077;Laerm;51039;49.696;10.808;2023-03-01T14:55:48;43.99;41.71;55.47;;
64077;Laerm;51039;49.696;10.808;2023-03-01T14:58:19;43.21;41.46;48.32;;
64077;Laerm;51039;49.696;10.808;2023-03-01T15:00:57;43.35;41.81;52.91;;
64077;Laerm;51039;49.696;10.808;2023-03-01T15:03:30;43.29;41.71;51.46;;